sensor_id;sensor_type;location;lat;lon;timestamp;P1;durP1;ratioP1;P2;durP2;ratioP2
5391;SDS011;2719;53.624;9.786;2023-05-23T00:01:05;16.23;;;11.80;;
5391;SDS011;2719;53.624;9.786;2023-05-23T00:03:33;13.20;;;10.80;;
5391;SDS011;2719;53.624;9.786;2023-05-23T00:06:01;14.20;;;10.87;;
5391;SDS011;2719;53.624;9.786;2023-05-23T00:08:29;12.53;;;10.20;;
5391;SDS011;2719;53.624;9.786;2023-05-23T00:10:56;14.50;;;10.23;;
5391;SDS011;2719;53.624;9.786;2023-05-23T00:13:23;13.63;;;10.73;;
5391;SDS011;2719;53.624;9.786;2023-05-23T00:15:50;12.63;;;9.53;;
5391;SDS011;2719;53.624;9.786;2023-05-23T00:18:17;14.13;;;11.40;;
5391;SDS011;2719;53.624;9.786;2023-05-23T00:20:44;18.03;;;11.63;;
5391;SDS011;2719;53.624;9.786;2023-05-23T00:23:13;17.30;;;10.03;;
5391;SDS011;2719;53.624;9.786;2023-05-23T00:25:43;11.77;;;9.70;;
5391;SDS011;2719;53.624;9.786;2023-05-23T00:28:12;17.67;;;9.37;;
5391;SDS011;2719;53.624;9.786;2023-05-23T00:30:39;11.43;;;9.10;;
5391;SDS011;2719;53.624;9.786;2023-05-23T00:33:06;9.53;;;8.40;;
5391;SDS011;2719;53.624;9.786;2023-05-23T00:35:33;15.30;;;10.17;;
5391;SDS011;2719;53.624;9.786;2023-05-23T00:38:00;13.20;;;9.77;;
5391;SDS011;2719;53.624;9.786;2023-05-23T00:40:28;12.67;;;8.50;;
5391;SDS011;2719;53.624;9.786;2023-05-23T00:42:55;11.13;;;8.47;;
5391;SDS011;2719;53.624;9.786;2023-05-23T00:45:22;11.40;;;8.43;;
5391;SDS011;2719;53.624;9.786;2023-05-23T00:47:49;9.63;;;7.13;;
5391;SDS011;2719;53.624;9.786;2023-05-23T00:50:17;12.53;;;7.03;;
5391;SDS011;2719;53.624;9.786;2023-05-23T00:52:44;10.27;;;6.80;;
5391;SDS011;2719;53.624;9.786;2023-05-23T00:55:12;8.07;;;6.63;;
5391;SDS011;2719;53.624;9.786;2023-05-23T00:57:40;12.97;;;6.80;;
5391;SDS011;2719;53.624;9.786;2023-05-23T01:00:08;8.60;;;6.17;;
5391;SDS011;2719;53.624;9.786;2023-05-23T01:02:36;13.67;;;7.17;;
5391;SDS011;2719;53.624;9.786;2023-05-23T01:05:07;10.43;;;6.17;;
5391;SDS011;2719;53.624;9.786;2023-05-23T01:07:35;8.90;;;6.57;;
5391;SDS011;2719;53.624;9.786;2023-05-23T01:10:02;11.43;;;6.40;;
5391;SDS011;2719;53.624;9.786;2023-05-23T01:12:32;7.23;;;6.00;;
5391;SDS011;2719;53.624;9.786;2023-05-23T01:15:04;14.63;;;6.67;;
5391;SDS011;2719;53.624;9.786;2023-05-23T01:17:35;12.77;;;7.30;;
5391;SDS011;2719;53.624;9.786;2023-05-23T01:20:06;7.17;;;5.77;;
5391;SDS011;2719;53.624;9.786;2023-05-23T01:22:56;10.13;;;5.73;;
5391;SDS011;2719;53.624;9.786;2023-05-23T01:25:27;7.87;;;6.37;;
5391;SDS011;2719;53.624;9.786;2023-05-23T01:28:02;9.10;;;7.33;;
5391;SDS011;2719;53.624;9.786;2023-05-23T01:30:31;13.90;;;9.73;;
5391;SDS011;2719;53.624;9.786;2023-05-23T01:32:59;16.63;;;12.00;;
5391;SDS011;2719;53.624;9.786;2023-05-23T01:35:26;13.57;;;11.03;;
5391;SDS011;2719;53.624;9.786;2023-05-23T01:37:54;14.03;;;11.77;;
5391;SDS011;2719;53.624;9.786;2023-05-23T01:40:21;17.77;;;12.37;;
5391;SDS011;2719;53.624;9.786;2023-05-23T01:42:48;19.40;;;11.90;;
5391;SDS011;2719;53.624;9.786;2023-05-23T01:45:17;16.77;;;14.00;;
5391;SDS011;2719;53.624;9.786;2023-05-23T01:47:44;18.77;;;15.07;;
5391;SDS011;2719;53.624;9.786;2023-05-23T01:50:12;20.00;;;15.80;;
5391;SDS011;2719;53.624;9.786;2023-05-23T01:52:39;20.50;;;15.77;;
5391;SDS011;2719;53.624;9.786;2023-05-23T01:55:07;24.50;;;17.30;;
5391;SDS011;2719;53.624;9.786;2023-05-23T01:57:36;30.70;;;19.40;;
5391;SDS011;2719;53.624;9.786;2023-05-23T02:00:04;31.77;;;20.00;;
5391;SDS011;2719;53.624;9.786;2023-05-23T02:02:32;28.50;;;20.10;;
5391;SDS011;2719;53.624;9.786;2023-05-23T02:04:59;32.77;;;20.83;;
5391;SDS011;2719;53.624;9.786;2023-05-23T02:07:26;34.73;;;21.10;;
5391;SDS011;2719;53.624;9.786;2023-05-23T02:09:53;39.33;;;20.33;;
5391;SDS011;2719;53.624;9.786;2023-05-23T02:12:21;31.17;;;21.97;;
5391;SDS011;2719;53.624;9.786;2023-05-23T02:14:48;40.43;;;23.50;;
5391;SDS011;2719;53.624;9.786;2023-05-23T02:17:16;45.43;;;23.23;;
5391;SDS011;2719;53.624;9.786;2023-05-23T02:19:44;33.37;;;21.17;;
5391;SDS011;2719;53.624;9.786;2023-05-23T02:22:11;30.57;;;20.77;;
5391;SDS011;2719;53.624;9.786;2023-05-23T02:24:38;41.43;;;23.50;;
5391;SDS011;2719;53.624;9.786;2023-05-23T02:27:05;39.63;;;22.53;;
5391;SDS011;2719;53.624;9.786;2023-05-23T02:29:32;33.93;;;21.13;;
5391;SDS011;2719;53.624;9.786;2023-05-23T02:32:00;37.67;;;19.90;;
5391;SDS011;2719;53.624;9.786;2023-05-23T02:34:27;40.23;;;21.90;;
5391;SDS011;2719;53.624;9.786;2023-05-23T02:36:55;64.80;;;22.80;;
5391;SDS011;2719;53.624;9.786;2023-05-23T02:39:22;41.50;;;21.53;;
5391;SDS011;2719;53.624;9.786;2023-05-23T02:41:49;37.43;;;21.27;;
5391;SDS011;2719;53.624;9.786;2023-05-23T02:44:16;42.67;;;22.57;;
5391;SDS011;2719;53.624;9.786;2023-05-23T02:46:43;42.60;;;22.47;;
5391;SDS011;2719;53.624;9.786;2023-05-23T02:49:10;29.00;;;19.60;;
5391;SDS011;2719;53.624;9.786;2023-05-23T02:51:37;36.83;;;19.80;;
5391;SDS011;2719;53.624;9.786;2023-05-23T02:54:06;44.00;;;19.60;;
5391;SDS011;2719;53.624;9.786;2023-05-23T02:56:33;31.63;;;19.83;;
5391;SDS011;2719;53.624;9.786;2023-05-23T02:59:00;34.27;;;18.30;;
5391;SDS011;2719;53.624;9.786;2023-05-23T03:01:27;35.73;;;19.47;;
5391;SDS011;2719;53.624;9.786;2023-05-23T03:03:54;39.27;;;18.50;;
5391;SDS011;2719;53.624;9.786;2023-05-23T03:06:21;35.07;;;19.03;;
5391;SDS011;2719;53.624;9.786;2023-05-23T03:08:49;38.67;;;19.20;;
5391;SDS011;2719;53.624;9.786;2023-05-23T03:11:17;35.10;;;18.80;;
5391;SDS011;2719;53.624;9.786;2023-05-23T03:13:46;34.87;;;19.27;;
5391;SDS011;2719;53.624;9.786;2023-05-23T03:16:13;32.73;;;19.30;;
5391;SDS011;2719;53.624;9.786;2023-05-23T03:18:40;42.57;;;18.07;;
5391;SDS011;2719;53.624;9.786;2023-05-23T03:21:07;28.20;;;16.10;;
5391;SDS011;2719;53.624;9.786;2023-05-23T03:23:34;36.53;;;17.73;;
5391;SDS011;2719;53.624;9.786;2023-05-23T03:26:01;37.50;;;18.47;;
5391;SDS011;2719;53.624;9.786;2023-05-23T03:28:31;36.13;;;18.80;;
5391;SDS011;2719;53.624;9.786;2023-05-23T03:30:58;38.17;;;17.90;;
5391;SDS011;2719;53.624;9.786;2023-05-23T03:33:26;28.20;;;17.83;;
5391;SDS011;2719;53.624;9.786;2023-05-23T03:35:53;32.30;;;19.00;;
5391;SDS011;2719;53.624;9.786;2023-05-23T03:38:21;39.30;;;18.50;;
5391;SDS011;2719;53.624;9.786;2023-05-23T03:40:48;30.73;;;18.73;;
5391;SDS011;2719;53.624;9.786;2023-05-23T03:43:15;35.93;;;19.30;;
5391;SDS011;2719;53.624;9.786;2023-05-23T03:45:43;41.20;;;20.80;;
5391;SDS011;2719;53.624;9.786;2023-05-23T03:48:10;34.47;;;18.53;;
5391;SDS011;2719;53.624;9.786;2023-05-23T03:50:37;37.30;;;18.90;;
5391;SDS011;2719;53.624;9.786;2023-05-23T03:53:04;29.77;;;18.13;;
5391;SDS011;2719;53.624;9.786;2023-05-23T03:55:31;43.50;;;19.57;;
5391;SDS011;2719;53.624;9.786;2023-05-23T03:57:58;35.90;;;19.60;;
5391;SDS011;2719;53.624;9.786;2023-05-23T04:00:25;34.70;;;17.30;;
5391;SDS011;2719;53.624;9.786;2023-05-23T04:02:54;37.30;;;21.43;;
5391;SDS011;2719;53.624;9.786;2023-05-23T04:05:21;34.30;;;19.50;;
5391;SDS011;2719;53.624;9.786;2023-05-23T04:07:48;38.30;;;20.90;;
5391;SDS011;2719;53.624;9.786;2023-05-23T04:10:15;41.60;;;18.73;;
5391;SDS011;2719;53.624;9.786;2023-05-23T04:12:42;41.20;;;19.83;;
5391;SDS011;2719;53.624;9.786;2023-05-23T04:15:09;34.73;;;18.60;;
5391;SDS011;2719;53.624;9.786;2023-05-23T04:17:36;34.80;;;19.63;;
5391;SDS011;2719;53.624;9.786;2023-05-23T04:20:07;43.73;;;19.37;;
5391;SDS011;2719;53.624;9.786;2023-05-23T04:22:34;44.70;;;21.27;;
5391;SDS011;2719;53.624;9.786;2023-05-23T04:25:01;51.77;;;20.70;;
5391;SDS011;2719;53.624;9.786;2023-05-23T04:27:28;42.63;;;19.70;;
5391;SDS011;2719;53.624;9.786;2023-05-23T04:29:55;43.40;;;21.00;;
5391;SDS011;2719;53.624;9.786;2023-05-23T04:32:24;45.10;;;20.33;;
5391;SDS011;2719;53.624;9.786;2023-05-23T04:34:51;38.70;;;22.60;;
5391;SDS011;2719;53.624;9.786;2023-05-23T04:37:19;40.80;;;20.97;;
5391;SDS011;2719;53.624;9.786;2023-05-23T04:39:50;45.30;;;23.07;;
5391;SDS011;2719;53.624;9.786;2023-05-23T04:42:17;46.50;;;21.10;;
5391;SDS011;2719;53.624;9.786;2023-05-23T04:44:48;47.70;;;21.17;;
5391;SDS011;2719;53.624;9.786;2023-05-23T04:47:15;40.43;;;21.70;;
5391;SDS011;2719;53.624;9.786;2023-05-23T04:49:43;41.47;;;22.07;;
5391;SDS011;2719;53.624;9.786;2023-05-23T04:52:10;39.77;;;20.37;;
5391;SDS011;2719;53.624;9.786;2023-05-23T04:54:38;47.93;;;24.67;;
5391;SDS011;2719;53.624;9.786;2023-05-23T04:57:08;46.23;;;22.40;;
5391;SDS011;2719;53.624;9.786;2023-05-23T04:59:36;52.37;;;23.40;;
5391;SDS011;2719;53.624;9.786;2023-05-23T05:02:03;61.47;;;25.47;;
5391;SDS011;2719;53.624;9.786;2023-05-23T05:04:30;49.40;;;23.20;;
5391;SDS011;2719;53.624;9.786;2023-05-23T05:06:58;49.93;;;22.77;;
5391;SDS011;2719;53.624;9.786;2023-05-23T05:09:27;54.77;;;22.77;;
5391;SDS011;2719;53.624;9.786;2023-05-23T05:11:55;80.17;;;24.97;;
5391;SDS011;2719;53.624;9.786;2023-05-23T05:14:22;48.53;;;25.13;;
5391;SDS011;2719;53.624;9.786;2023-05-23T05:16:49;47.13;;;22.70;;
5391;SDS011;2719;53.624;9.786;2023-05-23T05:19:16;42.37;;;22.83;;
5391;SDS011;2719;53.624;9.786;2023-05-23T05:21:43;50.67;;;23.73;;
5391;SDS011;2719;53.624;9.786;2023-05-23T05:24:10;44.10;;;23.47;;
5391;SDS011;2719;53.624;9.786;2023-05-23T05:26:37;58.57;;;23.10;;
5391;SDS011;2719;53.624;9.786;2023-05-23T05:29:06;51.47;;;23.50;;
5391;SDS011;2719;53.624;9.786;2023-05-23T05:31:33;57.20;;;24.30;;
5391;SDS011;2719;53.624;9.786;2023-05-23T05:34:01;53.30;;;24.97;;
5391;SDS011;2719;53.624;9.786;2023-05-23T05:36:28;48.17;;;23.97;;
5391;SDS011;2719;53.624;9.786;2023-05-23T05:38:56;43.93;;;23.20;;
5391;SDS011;2719;53.624;9.786;2023-05-23T05:41:23;47.47;;;24.60;;
5391;SDS011;2719;53.624;9.786;2023-05-23T05:43:50;47.57;;;22.33;;
5391;SDS011;2719;53.624;9.786;2023-05-23T05:46:19;45.53;;;23.70;;
5391;SDS011;2719;53.624;9.786;2023-05-23T05:48:46;58.63;;;23.70;;
5391;SDS011;2719;53.624;9.786;2023-05-23T05:51:13;48.77;;;23.33;;
5391;SDS011;2719;53.624;9.786;2023-05-23T05:53:40;45.73;;;24.37;;
5391;SDS011;2719;53.624;9.786;2023-05-23T05:56:07;51.90;;;25.30;;
5391;SDS011;2719;53.624;9.786;2023-05-23T05:58:34;53.27;;;25.80;;
5391;SDS011;2719;53.624;9.786;2023-05-23T06:01:01;53.20;;;26.37;;
5391;SDS011;2719;53.624;9.786;2023-05-23T06:03:31;55.87;;;25.17;;
5391;SDS011;2719;53.624;9.786;2023-05-23T06:05:57;54.70;;;26.17;;
5391;SDS011;2719;53.624;9.786;2023-05-23T06:08:24;56.17;;;26.30;;
5391;SDS011;2719;53.624;9.786;2023-05-23T06:10:52;47.57;;;23.50;;
5391;SDS011;2719;53.624;9.786;2023-05-23T06:13:20;43.37;;;23.00;;
5391;SDS011;2719;53.624;9.786;2023-05-23T06:15:47;42.83;;;21.47;;
5391;SDS011;2719;53.624;9.786;2023-05-23T06:18:14;44.43;;;20.67;;
5391;SDS011;2719;53.624;9.786;2023-05-23T06:20:43;40.40;;;18.70;;
5391;SDS011;2719;53.624;9.786;2023-05-23T06:23:10;42.53;;;20.20;;
5391;SDS011;2719;53.624;9.786;2023-05-23T06:25:38;38.30;;;18.73;;
5391;SDS011;2719;53.624;9.786;2023-05-23T06:28:05;34.97;;;19.00;;
5391;SDS011;2719;53.624;9.786;2023-05-23T06:30:32;29.10;;;16.03;;
5391;SDS011;2719;53.624;9.786;2023-05-23T06:33:00;27.97;;;16.30;;
5391;SDS011;2719;53.624;9.786;2023-05-23T06:35:27;24.53;;;14.30;;
5391;SDS011;2719;53.624;9.786;2023-05-23T06:37:55;28.90;;;13.73;;
5391;SDS011;2719;53.624;9.786;2023-05-23T06:40:22;16.10;;;9.53;;
5391;SDS011;2719;53.624;9.786;2023-05-23T06:42:49;17.70;;;9.53;;
5391;SDS011;2719;53.624;9.786;2023-05-23T06:45:16;12.70;;;8.60;;
5391;SDS011;2719;53.624;9.786;2023-05-23T06:47:43;11.67;;;6.93;;
5391;SDS011;2719;53.624;9.786;2023-05-23T06:50:12;14.40;;;7.20;;
5391;SDS011;2719;53.624;9.786;2023-05-23T06:52:39;23.90;;;8.50;;
5391;SDS011;2719;53.624;9.786;2023-05-23T06:55:09;10.83;;;5.77;;
5391;SDS011;2719;53.624;9.786;2023-05-23T06:57:38;10.40;;;5.53;;
5391;SDS011;2719;53.624;9.786;2023-05-23T07:00:06;7.50;;;5.40;;
5391;SDS011;2719;53.624;9.786;2023-05-23T07:02:33;8.83;;;5.50;;
5391;SDS011;2719;53.624;9.786;2023-05-23T07:05:00;9.17;;;5.40;;
5391;SDS011;2719;53.624;9.786;2023-05-23T07:07:27;8.90;;;6.20;;
5391;SDS011;2719;53.624;9.786;2023-05-23T07:09:54;8.23;;;5.07;;
5391;SDS011;2719;53.624;9.786;2023-05-23T07:12:23;8.27;;;4.60;;
5391;SDS011;2719;53.624;9.786;2023-05-23T07:14:50;15.77;;;5.03;;
5391;SDS011;2719;53.624;9.786;2023-05-23T07:17:17;10.63;;;5.07;;
5391;SDS011;2719;53.624;9.786;2023-05-23T07:19:44;7.87;;;5.07;;
5391;SDS011;2719;53.624;9.786;2023-05-23T07:22:11;14.87;;;5.90;;
5391;SDS011;2719;53.624;9.786;2023-05-23T07:24:38;6.43;;;4.10;;
5391;SDS011;2719;53.624;9.786;2023-05-23T07:27:05;8.50;;;5.00;;
5391;SDS011;2719;53.624;9.786;2023-05-23T07:29:34;12.50;;;4.03;;
5391;SDS011;2719;53.624;9.786;2023-05-23T07:32:01;5.30;;;3.10;;
5391;SDS011;2719;53.624;9.786;2023-05-23T07:34:28;10.90;;;2.70;;
5391;SDS011;2719;53.624;9.786;2023-05-23T07:36:55;4.93;;;2.80;;
5391;SDS011;2719;53.624;9.786;2023-05-23T07:39:22;9.13;;;3.57;;
5391;SDS011;2719;53.624;9.786;2023-05-23T07:41:49;9.50;;;4.47;;
5391;SDS011;2719;53.624;9.786;2023-05-23T07:44:17;6.47;;;3.10;;
5391;SDS011;2719;53.624;9.786;2023-05-23T07:46:46;5.00;;;2.80;;
5391;SDS011;2719;53.624;9.786;2023-05-23T07:49:13;7.37;;;3.27;;
5391;SDS011;2719;53.624;9.786;2023-05-23T07:51:40;3.80;;;2.30;;
5391;SDS011;2719;53.624;9.786;2023-05-23T07:54:07;4.93;;;3.10;;
5391;SDS011;2719;53.624;9.786;2023-05-23T07:56:34;4.53;;;2.50;;
5391;SDS011;2719;53.624;9.786;2023-05-23T07:59:02;6.30;;;3.73;;
5391;SDS011;2719;53.624;9.786;2023-05-23T08:01:30;6.20;;;2.70;;
5391;SDS011;2719;53.624;9.786;2023-05-23T08:03:58;5.80;;;3.47;;
5391;SDS011;2719;53.624;9.786;2023-05-23T08:06:25;8.70;;;2.90;;
5391;SDS011;2719;53.624;9.786;2023-05-23T08:08:52;8.27;;;2.97;;
5391;SDS011;2719;53.624;9.786;2023-05-23T08:11:19;7.30;;;3.10;;
5391;SDS011;2719;53.624;9.786;2023-05-23T08:13:46;5.13;;;3.10;;
5391;SDS011;2719;53.624;9.786;2023-05-23T08:16:13;5.97;;;3.17;;
5391;SDS011;2719;53.624;9.786;2023-05-23T08:18:40;4.20;;;2.77;;
5391;SDS011;2719;53.624;9.786;2023-05-23T08:21:09;4.97;;;3.00;;
5391;SDS011;2719;53.624;9.786;2023-05-23T08:23:36;7.50;;;2.50;;
5391;SDS011;2719;53.624;9.786;2023-05-23T08:26:03;5.67;;;3.10;;
5391;SDS011;2719;53.624;9.786;2023-05-23T08:28:31;4.40;;;3.07;;
5391;SDS011;2719;53.624;9.786;2023-05-23T08:30:59;5.10;;;2.60;;
5391;SDS011;2719;53.624;9.786;2023-05-23T08:33:26;6.00;;;2.67;;
5391;SDS011;2719;53.624;9.786;2023-05-23T08:35:53;4.53;;;2.70;;
5391;SDS011;2719;53.624;9.786;2023-05-23T08:38:21;5.37;;;2.70;;
5391;SDS011;2719;53.624;9.786;2023-05-23T08:40:48;7.80;;;3.00;;
5391;SDS011;2719;53.624;9.786;2023-05-23T08:43:16;8.10;;;3.10;;
5391;SDS011;2719;53.624;9.786;2023-05-23T08:45:43;9.30;;;3.40;;
5391;SDS011;2719;53.624;9.786;2023-05-23T08:48:12;8.40;;;3.63;;
5391;SDS011;2719;53.624;9.786;2023-05-23T08:50:40;5.37;;;3.30;;
5391;SDS011;2719;53.624;9.786;2023-05-23T08:53:08;8.90;;;3.20;;
5391;SDS011;2719;53.624;9.786;2023-05-23T08:55:37;9.53;;;2.50;;
5391;SDS011;2719;53.624;9.786;2023-05-23T08:58:04;19.60;;;4.30;;
5391;SDS011;2719;53.624;9.786;2023-05-23T09:00:31;10.93;;;3.00;;
5391;SDS011;2719;53.624;9.786;2023-05-23T09:02:59;10.60;;;3.00;;
5391;SDS011;2719;53.624;9.786;2023-05-23T09:05:26;7.10;;;2.60;;
5391;SDS011;2719;53.624;9.786;2023-05-23T09:07:53;9.43;;;3.50;;
5391;SDS011;2719;53.624;9.786;2023-05-23T09:10:20;7.23;;;3.80;;
5391;SDS011;2719;53.624;9.786;2023-05-23T09:12:49;14.13;;;3.37;;
5391;SDS011;2719;53.624;9.786;2023-05-23T09:15:16;9.00;;;2.90;;
5391;SDS011;2719;53.624;9.786;2023-05-23T09:17:43;11.23;;;4.60;;
5391;SDS011;2719;53.624;9.786;2023-05-23T09:20:11;5.70;;;2.23;;
5391;SDS011;2719;53.624;9.786;2023-05-23T09:22:38;7.03;;;2.87;;
5391;SDS011;2719;53.624;9.786;2023-05-23T09:25:06;9.00;;;1.83;;
5391;SDS011;2719;53.624;9.786;2023-05-23T09:27:33;8.90;;;2.20;;
5391;SDS011;2719;53.624;9.786;2023-05-23T09:30:05;7.30;;;2.37;;
5391;SDS011;2719;53.624;9.786;2023-05-23T09:32:32;6.60;;;1.20;;
5391;SDS011;2719;53.624;9.786;2023-05-23T09:35:00;5.77;;;1.40;;
5391;SDS011;2719;53.624;9.786;2023-05-23T09:37:28;8.47;;;2.20;;
5391;SDS011;2719;53.624;9.786;2023-05-23T09:39:56;7.00;;;2.23;;
5391;SDS011;2719;53.624;9.786;2023-05-23T09:42:24;4.00;;;1.33;;
5391;SDS011;2719;53.624;9.786;2023-05-23T09:44:52;5.10;;;1.40;;
5391;SDS011;2719;53.624;9.786;2023-05-23T09:47:20;4.43;;;1.73;;
5391;SDS011;2719;53.624;9.786;2023-05-23T09:49:47;5.17;;;1.43;;
5391;SDS011;2719;53.624;9.786;2023-05-23T09:52:15;6.20;;;1.10;;
5391;SDS011;2719;53.624;9.786;2023-05-23T09:54:44;7.60;;;1.30;;
5391;SDS011;2719;53.624;9.786;2023-05-23T09:57:13;5.43;;;1.03;;
5391;SDS011;2719;53.624;9.786;2023-05-23T09:59:40;4.67;;;1.13;;
5391;SDS011;2719;53.624;9.786;2023-05-23T10:02:10;4.97;;;0.90;;
5391;SDS011;2719;53.624;9.786;2023-05-23T10:04:38;7.77;;;2.17;;
5391;SDS011;2719;53.624;9.786;2023-05-23T10:07:09;10.80;;;1.70;;
5391;SDS011;2719;53.624;9.786;2023-05-23T10:09:39;12.93;;;1.57;;
5391;SDS011;2719;53.624;9.786;2023-05-23T10:14:53;10.60;;;1.77;;
5391;SDS011;2719;53.624;9.786;2023-05-23T10:17:23;7.10;;;1.70;;
5391;SDS011;2719;53.624;9.786;2023-05-23T10:19:57;8.27;;;1.87;;
5391;SDS011;2719;53.624;9.786;2023-05-23T10:22:24;6.87;;;1.47;;
5391;SDS011;2719;53.624;9.786;2023-05-23T10:24:51;7.40;;;1.53;;
5391;SDS011;2719;53.624;9.786;2023-05-23T10:27:19;4.57;;;1.20;;
5391;SDS011;2719;53.624;9.786;2023-05-23T10:29:46;18.40;;;2.40;;
5391;SDS011;2719;53.624;9.786;2023-05-23T10:32:13;14.30;;;1.90;;
5391;SDS011;2719;53.624;9.786;2023-05-23T10:34:43;12.10;;;1.30;;
5391;SDS011;2719;53.624;9.786;2023-05-23T10:37:16;7.93;;;2.13;;
5391;SDS011;2719;53.624;9.786;2023-05-23T10:39:49;10.37;;;1.87;;
5391;SDS011;2719;53.624;9.786;2023-05-23T10:42:18;7.77;;;2.20;;
5391;SDS011;2719;53.624;9.786;2023-05-23T10:44:49;6.80;;;1.40;;
5391;SDS011;2719;53.624;9.786;2023-05-23T10:47:24;8.17;;;1.63;;
5391;SDS011;2719;53.624;9.786;2023-05-23T10:49:52;15.73;;;2.80;;
5391;SDS011;2719;53.624;9.786;2023-05-23T10:52:22;34.10;;;4.70;;
5391;SDS011;2719;53.624;9.786;2023-05-23T10:54:50;9.83;;;1.47;;
5391;SDS011;2719;53.624;9.786;2023-05-23T10:57:18;11.00;;;1.83;;
5391;SDS011;2719;53.624;9.786;2023-05-23T10:59:45;10.53;;;2.80;;
5391;SDS011;2719;53.624;9.786;2023-05-23T11:02:14;7.03;;;1.60;;
5391;SDS011;2719;53.624;9.786;2023-05-23T11:04:41;16.37;;;2.10;;
5391;SDS011;2719;53.624;9.786;2023-05-23T11:10:07;11.07;;;1.70;;
5391;SDS011;2719;53.624;9.786;2023-05-23T11:12:35;5.90;;;1.37;;
5391;SDS011;2719;53.624;9.786;2023-05-23T11:15:05;5.73;;;1.83;;
5391;SDS011;2719;53.624;9.786;2023-05-23T11:17:49;15.97;;;1.87;;
5391;SDS011;2719;53.624;9.786;2023-05-23T11:20:16;23.40;;;1.43;;
5391;SDS011;2719;53.624;9.786;2023-05-23T11:22:52;6.40;;;1.37;;
5391;SDS011;2719;53.624;9.786;2023-05-23T11:25:21;11.60;;;1.87;;
5391;SDS011;2719;53.624;9.786;2023-05-23T11:28:05;9.50;;;2.10;;
5391;SDS011;2719;53.624;9.786;2023-05-23T11:30:32;13.30;;;1.57;;
5391;SDS011;2719;53.624;9.786;2023-05-23T11:33:05;18.30;;;2.33;;
5391;SDS011;2719;53.624;9.786;2023-05-23T11:35:33;9.97;;;1.70;;
5391;SDS011;2719;53.624;9.786;2023-05-23T11:38:01;7.70;;;2.17;;
5391;SDS011;2719;53.624;9.786;2023-05-23T11:40:30;14.07;;;2.27;;
5391;SDS011;2719;53.624;9.786;2023-05-23T11:42:57;15.23;;;2.30;;
5391;SDS011;2719;53.624;9.786;2023-05-23T11:45:24;13.90;;;1.77;;
5391;SDS011;2719;53.624;9.786;2023-05-23T11:47:52;11.17;;;1.70;;
5391;SDS011;2719;53.624;9.786;2023-05-23T11:50:19;13.80;;;2.13;;
5391;SDS011;2719;53.624;9.786;2023-05-23T11:52:46;15.33;;;2.60;;
5391;SDS011;2719;53.624;9.786;2023-05-23T11:55:15;11.70;;;2.60;;
5391;SDS011;2719;53.624;9.786;2023-05-23T11:57:44;6.97;;;1.60;;
5391;SDS011;2719;53.624;9.786;2023-05-23T12:00:11;10.60;;;2.00;;
5391;SDS011;2719;53.624;9.786;2023-05-23T12:02:39;18.40;;;2.57;;
5391;SDS011;2719;53.624;9.786;2023-05-23T12:05:07;11.87;;;1.83;;
5391;SDS011;2719;53.624;9.786;2023-05-23T12:07:34;13.90;;;2.80;;
5391;SDS011;2719;53.624;9.786;2023-05-23T12:10:02;12.03;;;2.43;;
5391;SDS011;2719;53.624;9.786;2023-05-23T12:12:30;10.83;;;2.10;;
5391;SDS011;2719;53.624;9.786;2023-05-23T12:14:58;30.03;;;2.50;;
5391;SDS011;2719;53.624;9.786;2023-05-23T12:17:26;14.53;;;2.00;;
5391;SDS011;2719;53.624;9.786;2023-05-23T12:19:53;11.70;;;2.07;;
5391;SDS011;2719;53.624;9.786;2023-05-23T12:22:23;16.60;;;2.30;;
5391;SDS011;2719;53.624;9.786;2023-05-23T12:24:52;19.17;;;2.20;;
5391;SDS011;2719;53.624;9.786;2023-05-23T12:27:25;10.53;;;1.90;;
5391;SDS011;2719;53.624;9.786;2023-05-23T12:29:54;7.13;;;1.60;;
5391;SDS011;2719;53.624;9.786;2023-05-23T12:32:31;3.63;;;1.63;;
5391;SDS011;2719;53.624;9.786;2023-05-23T12:34:58;9.10;;;1.83;;
5391;SDS011;2719;53.624;9.786;2023-05-23T12:37:25;11.83;;;2.40;;
5391;SDS011;2719;53.624;9.786;2023-05-23T12:39:53;9.50;;;1.53;;
5391;SDS011;2719;53.624;9.786;2023-05-23T12:42:21;8.93;;;1.90;;
5391;SDS011;2719;53.624;9.786;2023-05-23T12:44:49;5.50;;;1.20;;
5391;SDS011;2719;53.624;9.786;2023-05-23T12:47:16;7.33;;;1.40;;
5391;SDS011;2719;53.624;9.786;2023-05-23T12:49:45;8.60;;;2.00;;
5391;SDS011;2719;53.624;9.786;2023-05-23T12:52:12;11.20;;;2.00;;
5391;SDS011;2719;53.624;9.786;2023-05-23T12:54:39;14.40;;;2.10;;
5391;SDS011;2719;53.624;9.786;2023-05-23T12:57:06;14.03;;;2.33;;
5391;SDS011;2719;53.624;9.786;2023-05-23T12:59:33;10.20;;;2.03;;
5391;SDS011;2719;53.624;9.786;2023-05-23T13:02:00;9.77;;;1.93;;
5391;SDS011;2719;53.624;9.786;2023-05-23T13:04:28;12.97;;;2.43;;
5391;SDS011;2719;53.624;9.786;2023-05-23T13:06:56;19.67;;;2.50;;
5391;SDS011;2719;53.624;9.786;2023-05-23T13:09:23;16.00;;;2.50;;
5391;SDS011;2719;53.624;9.786;2023-05-23T13:11:50;16.63;;;2.30;;
5391;SDS011;2719;53.624;9.786;2023-05-23T13:14:18;14.13;;;3.00;;
5391;SDS011;2719;53.624;9.786;2023-05-23T13:16:45;10.60;;;2.20;;
5391;SDS011;2719;53.624;9.786;2023-05-23T13:19:12;4.83;;;1.50;;
5391;SDS011;2719;53.624;9.786;2023-05-23T13:21:39;10.10;;;1.93;;
5391;SDS011;2719;53.624;9.786;2023-05-23T13:24:07;6.47;;;1.63;;
5391;SDS011;2719;53.624;9.786;2023-05-23T13:26:34;9.73;;;2.23;;
5391;SDS011;2719;53.624;9.786;2023-05-23T13:29:01;13.63;;;2.00;;
5391;SDS011;2719;53.624;9.786;2023-05-23T13:31:28;14.27;;;2.27;;
5391;SDS011;2719;53.624;9.786;2023-05-23T13:33:55;11.27;;;2.20;;
5391;SDS011;2719;53.624;9.786;2023-05-23T13:36:22;10.30;;;1.77;;
5391;SDS011;2719;53.624;9.786;2023-05-23T13:38:50;8.40;;;1.90;;
5391;SDS011;2719;53.624;9.786;2023-05-23T13:41:18;7.07;;;1.60;;
5391;SDS011;2719;53.624;9.786;2023-05-23T13:43:45;31.67;;;4.40;;
5391;SDS011;2719;53.624;9.786;2023-05-23T13:46:12;18.03;;;2.37;;
5391;SDS011;2719;53.624;9.786;2023-05-23T13:48:39;10.93;;;1.60;;
5391;SDS011;2719;53.624;9.786;2023-05-23T13:51:06;12.00;;;2.27;;
5391;SDS011;2719;53.624;9.786;2023-05-23T13:53:34;14.23;;;2.10;;
5391;SDS011;2719;53.624;9.786;2023-05-23T13:56:01;7.50;;;2.10;;
5391;SDS011;2719;53.624;9.786;2023-05-23T13:58:29;13.33;;;2.17;;
5391;SDS011;2719;53.624;9.786;2023-05-23T14:00:56;7.40;;;1.40;;
5391;SDS011;2719;53.624;9.786;2023-05-23T14:03:23;11.80;;;1.90;;
5391;SDS011;2719;53.624;9.786;2023-05-23T14:05:50;13.60;;;1.70;;
5391;SDS011;2719;53.624;9.786;2023-05-23T14:08:17;10.60;;;3.47;;
5391;SDS011;2719;53.624;9.786;2023-05-23T14:10:44;11.33;;;1.53;;
5391;SDS011;2719;53.624;9.786;2023-05-23T14:13:11;5.07;;;1.80;;
5391;SDS011;2719;53.624;9.786;2023-05-23T14:15:40;12.77;;;1.80;;
5391;SDS011;2719;53.624;9.786;2023-05-23T14:18:07;5.37;;;1.20;;
5391;SDS011;2719;53.624;9.786;2023-05-23T14:20:34;18.17;;;2.30;;
5391;SDS011;2719;53.624;9.786;2023-05-23T14:23:01;12.43;;;1.83;;
5391;SDS011;2719;53.624;9.786;2023-05-23T14:25:28;7.53;;;1.47;;
5391;SDS011;2719;53.624;9.786;2023-05-23T14:27:55;9.80;;;1.87;;
5391;SDS011;2719;53.624;9.786;2023-05-23T14:30:22;24.80;;;2.27;;
5391;SDS011;2719;53.624;9.786;2023-05-23T14:32:51;26.30;;;2.20;;
5391;SDS011;2719;53.624;9.786;2023-05-23T14:35:18;16.73;;;2.20;;
5391;SDS011;2719;53.624;9.786;2023-05-23T14:37:46;3.70;;;1.23;;
5391;SDS011;2719;53.624;9.786;2023-05-23T14:40:13;23.03;;;3.50;;
5391;SDS011;2719;53.624;9.786;2023-05-23T14:42:41;8.80;;;1.37;;
5391;SDS011;2719;53.624;9.786;2023-05-23T14:45:08;15.63;;;1.80;;
5391;SDS011;2719;53.624;9.786;2023-05-23T14:47:35;12.87;;;1.60;;
5391;SDS011;2719;53.624;9.786;2023-05-23T14:50:04;17.10;;;2.30;;
5391;SDS011;2719;53.624;9.786;2023-05-23T14:52:31;10.10;;;1.83;;
5391;SDS011;2719;53.624;9.786;2023-05-23T14:54:58;10.03;;;1.30;;
5391;SDS011;2719;53.624;9.786;2023-05-23T14:57:25;7.13;;;0.93;;
5391;SDS011;2719;53.624;9.786;2023-05-23T14:59:52;15.03;;;2.70;;
5391;SDS011;2719;53.624;9.786;2023-05-23T15:02:19;16.10;;;2.10;;
5391;SDS011;2719;53.624;9.786;2023-05-23T15:04:46;14.20;;;2.20;;
5391;SDS011;2719;53.624;9.786;2023-05-23T15:07:15;22.97;;;2.07;;
5391;SDS011;2719;53.624;9.786;2023-05-23T15:09:42;11.40;;;1.10;;